createdAt,value
2023-03-27T00:18:17.508Z,505
2023-03-27T00:38:17.525Z,505
2023-03-27T00:58:17.512Z,502
2023-03-27T01:18:17.649Z,499
2023-03-27T01:38:17.570Z,499
2023-03-27T02:38:17.602Z,495
2023-03-27T02:58:17.628Z,495
2023-03-27T03:18:17.642Z,494
2023-03-27T03:38:17.711Z,495
2023-03-27T03:58:17.798Z,488
2023-03-27T04:18:17.756Z,485
2023-03-27T04:38:17.730Z,492
2023-03-27T04:58:17.776Z,491
2023-03-27T05:18:17.747Z,487
2023-03-27T05:38:17.785Z,489
2023-03-27T05:58:24.894Z,482
2023-03-27T06:18:17.917Z,482
2023-03-27T06:38:17.825Z,489
2023-03-27T06:58:17.854Z,487
2023-03-27T07:18:17.902Z,489
2023-03-27T07:38:17.866Z,483
2023-03-27T07:58:17.970Z,490
2023-03-27T08:18:17.971Z,474
2023-03-27T08:38:25.890Z,475
2023-03-27T08:58:17.954Z,477
2023-03-27T09:18:17.985Z,471
2023-03-27T09:38:17.974Z,468
2023-03-27T09:58:17.992Z,470
2023-03-27T10:18:17.961Z,459
2023-03-27T10:38:18.006Z,470
2023-03-27T11:18:17.990Z,460
2023-03-27T11:38:18.029Z,451
2023-03-27T12:18:18.042Z,463
2023-03-27T12:38:18.055Z,465
2023-03-27T12:58:18.129Z,466
2023-03-27T13:18:18.070Z,453
2023-03-27T13:38:25.098Z,452
2023-03-27T13:58:25.100Z,443
2023-03-27T14:18:18.077Z,449
2023-03-27T14:38:18.130Z,456
2023-03-27T14:58:18.109Z,431
2023-03-27T15:18:18.122Z,423
2023-03-27T15:38:18.108Z,422
2023-03-27T15:58:18.068Z,423
2023-03-27T16:18:18.105Z,426
2023-03-27T16:38:18.134Z,437
2023-03-27T16:58:18.130Z,435
2023-03-27T17:38:18.110Z,441
2023-03-27T17:58:18.261Z,442
2023-03-27T18:18:18.131Z,446
2023-03-27T18:38:18.232Z,451
2023-03-27T19:18:18.172Z,445
2023-03-27T19:38:18.180Z,434
2023-03-27T19:58:18.201Z,439
2023-03-27T20:18:18.206Z,428
2023-03-27T20:38:18.232Z,430
2023-03-27T20:58:18.260Z,435
2023-03-27T21:18:18.414Z,435
2023-03-27T21:38:18.290Z,432
2023-03-27T21:58:18.281Z,432
2023-03-27T22:18:18.304Z,429
2023-03-27T22:38:18.330Z,430
2023-03-27T22:58:18.518Z,436
2023-03-27T23:38:18.368Z,431
2023-03-27T23:58:18.403Z,429
